Lake Waukomis, Missouri
Current Conditions -  °F | °C
As of 12:32 PM on Monday 22 Dec 2014 (Local Time) from KMKC Reporting Station
Light Rain Light Rain  
Wind Chill: 41°   Ceiling: 600
Heat Index: 45°   Visibility: 2.5mi
Dew Point: 43°   Wind: 8mph
Humidity: 93%   Direction: 200°SSW
Pressure: 29.49"   Gusts: NA
Location:  39.2125°N, 94.6296°W
Report Text: KMKC 221832Z 20007KT 2 1/2SM -RA BR OVC006 07/06 A2949 RMK AO2 RAB10 P0000 T00720061
Loading
Personal Weather Stations






























Interactive Weather Map New forecast layout! Learn more

10-Day Weather Forecast

Advertisements
Track Severe Weather on mobile